sensor_id;sensor_type;location;lat;lon;timestamp;P1;durP1;ratioP1;P2;durP2;ratioP2
49730;SDS011;35622;52.008;5.426;2023-07-29T00:01:34;3.83;;;1.95;;
49730;SDS011;35622;52.008;5.426;2023-07-29T00:04:00;5.60;;;2.17;;
49730;SDS011;35622;52.008;5.426;2023-07-29T00:06:26;4.30;;;1.85;;
49730;SDS011;35622;52.008;5.426;2023-07-29T00:08:52;4.85;;;2.13;;
49730;SDS011;35622;52.008;5.426;2023-07-29T00:11:17;8.63;;;2.10;;
49730;SDS011;35622;52.008;5.426;2023-07-29T00:13:43;2.38;;;1.88;;
49730;SDS011;35622;52.008;5.426;2023-07-29T00:16:09;4.80;;;2.00;;
49730;SDS011;35622;52.008;5.426;2023-07-29T00:18:35;6.03;;;2.10;;
49730;SDS011;35622;52.008;5.426;2023-07-29T00:21:00;6.60;;;2.25;;
49730;SDS011;35622;52.008;5.426;2023-07-29T00:23:27;7.38;;;2.00;;
49730;SDS011;35622;52.008;5.426;2023-07-29T00:25:52;5.07;;;2.25;;
49730;SDS011;35622;52.008;5.426;2023-07-29T00:28:18;5.05;;;2.10;;
49730;SDS011;35622;52.008;5.426;2023-07-29T00:30:43;4.72;;;2.08;;
49730;SDS011;35622;52.008;5.426;2023-07-29T00:33:09;6.75;;;2.38;;
49730;SDS011;35622;52.008;5.426;2023-07-29T00:35:35;5.10;;;1.80;;
49730;SDS011;35622;52.008;5.426;2023-07-29T00:38:00;5.35;;;2.13;;
49730;SDS011;35622;52.008;5.426;2023-07-29T00:40:27;5.72;;;2.30;;
49730;SDS011;35622;52.008;5.426;2023-07-29T00:42:53;6.18;;;2.08;;
49730;SDS011;35622;52.008;5.426;2023-07-29T00:45:19;5.85;;;2.10;;
49730;SDS011;35622;52.008;5.426;2023-07-29T00:47:45;7.38;;;1.90;;
49730;SDS011;35622;52.008;5.426;2023-07-29T00:50:12;4.35;;;1.90;;
49730;SDS011;35622;52.008;5.426;2023-07-29T00:52:38;3.25;;;1.77;;
49730;SDS011;35622;52.008;5.426;2023-07-29T00:55:04;3.55;;;2.00;;
49730;SDS011;35622;52.008;5.426;2023-07-29T00:57:31;3.83;;;1.77;;
49730;SDS011;35622;52.008;5.426;2023-07-29T00:59:58;3.45;;;1.77;;
49730;SDS011;35622;52.008;5.426;2023-07-29T01:02:24;2.70;;;1.67;;
49730;SDS011;35622;52.008;5.426;2023-07-29T01:04:52;4.75;;;1.70;;
49730;SDS011;35622;52.008;5.426;2023-07-29T01:07:29;4.38;;;1.90;;
49730;SDS011;35622;52.008;5.426;2023-07-29T01:10:33;4.82;;;2.03;;
49730;SDS011;35622;52.008;5.426;2023-07-29T01:18:31;5.00;;;1.77;;
49730;SDS011;35622;52.008;5.426;2023-07-29T01:21:03;2.60;;;1.60;;
49730;SDS011;35622;52.008;5.426;2023-07-29T01:23:30;3.72;;;2.28;;
49730;SDS011;35622;52.008;5.426;2023-07-29T01:25:56;5.25;;;1.98;;
49730;SDS011;35622;52.008;5.426;2023-07-29T01:28:22;2.25;;;1.80;;
49730;SDS011;35622;52.008;5.426;2023-07-29T01:30:48;4.65;;;1.65;;
49730;SDS011;35622;52.008;5.426;2023-07-29T01:33:25;5.95;;;2.20;;
49730;SDS011;35622;52.008;5.426;2023-07-29T01:35:57;3.35;;;1.95;;
49730;SDS011;35622;52.008;5.426;2023-07-29T01:38:33;2.08;;;1.50;;
49730;SDS011;35622;52.008;5.426;2023-07-29T01:41:02;3.03;;;1.58;;
49730;SDS011;35622;52.008;5.426;2023-07-29T01:43:28;5.07;;;1.70;;
49730;SDS011;35622;52.008;5.426;2023-07-29T01:45:54;5.43;;;1.60;;
49730;SDS011;35622;52.008;5.426;2023-07-29T01:48:20;4.80;;;1.75;;
49730;SDS011;35622;52.008;5.426;2023-07-29T01:50:46;2.92;;;1.70;;
49730;SDS011;35622;52.008;5.426;2023-07-29T01:53:12;3.70;;;1.40;;
49730;SDS011;35622;52.008;5.426;2023-07-29T01:55:38;3.17;;;1.67;;
49730;SDS011;35622;52.008;5.426;2023-07-29T01:58:04;3.08;;;1.52;;
49730;SDS011;35622;52.008;5.426;2023-07-29T02:00:29;4.30;;;1.83;;
49730;SDS011;35622;52.008;5.426;2023-07-29T02:02:55;4.03;;;1.60;;
49730;SDS011;35622;52.008;5.426;2023-07-29T02:05:20;2.85;;;1.80;;
49730;SDS011;35622;52.008;5.426;2023-07-29T02:07:46;3.33;;;1.80;;
49730;SDS011;35622;52.008;5.426;2023-07-29T02:10:11;5.95;;;1.75;;
49730;SDS011;35622;52.008;5.426;2023-07-29T02:12:37;4.28;;;1.60;;
49730;SDS011;35622;52.008;5.426;2023-07-29T02:15:03;3.53;;;1.52;;
49730;SDS011;35622;52.008;5.426;2023-07-29T02:17:29;3.35;;;1.75;;
49730;SDS011;35622;52.008;5.426;2023-07-29T02:19:55;5.03;;;2.38;;
49730;SDS011;35622;52.008;5.426;2023-07-29T02:22:21;5.55;;;1.67;;
49730;SDS011;35622;52.008;5.426;2023-07-29T02:24:46;5.20;;;1.90;;
49730;SDS011;35622;52.008;5.426;2023-07-29T02:27:12;2.97;;;1.83;;
49730;SDS011;35622;52.008;5.426;2023-07-29T02:29:37;4.70;;;2.53;;
49730;SDS011;35622;52.008;5.426;2023-07-29T02:32:03;5.70;;;2.00;;
49730;SDS011;35622;52.008;5.426;2023-07-29T02:34:29;5.70;;;2.80;;
49730;SDS011;35622;52.008;5.426;2023-07-29T02:36:55;6.75;;;2.20;;
49730;SDS011;35622;52.008;5.426;2023-07-29T02:39:20;3.58;;;2.10;;
49730;SDS011;35622;52.008;5.426;2023-07-29T02:41:46;7.50;;;2.40;;
49730;SDS011;35622;52.008;5.426;2023-07-29T02:44:12;7.45;;;2.67;;
49730;SDS011;35622;52.008;5.426;2023-07-29T02:46:37;9.20;;;2.75;;
49730;SDS011;35622;52.008;5.426;2023-07-29T02:49:03;4.38;;;2.45;;
49730;SDS011;35622;52.008;5.426;2023-07-29T02:51:29;4.72;;;2.58;;
49730;SDS011;35622;52.008;5.426;2023-07-29T02:53:55;6.25;;;2.60;;
49730;SDS011;35622;52.008;5.426;2023-07-29T02:56:21;6.47;;;3.03;;
49730;SDS011;35622;52.008;5.426;2023-07-29T02:58:46;7.03;;;2.90;;
49730;SDS011;35622;52.008;5.426;2023-07-29T03:01:12;4.93;;;2.80;;
49730;SDS011;35622;52.008;5.426;2023-07-29T03:03:38;6.72;;;2.80;;
49730;SDS011;35622;52.008;5.426;2023-07-29T03:06:05;6.15;;;2.80;;
49730;SDS011;35622;52.008;5.426;2023-07-29T03:08:34;7.90;;;3.70;;
49730;SDS011;35622;52.008;5.426;2023-07-29T03:11:07;8.02;;;3.80;;
49730;SDS011;35622;52.008;5.426;2023-07-29T03:13:34;4.93;;;3.38;;
49730;SDS011;35622;52.008;5.426;2023-07-29T03:16:06;5.63;;;3.30;;
49730;SDS011;35622;52.008;5.426;2023-07-29T03:18:33;8.93;;;4.38;;
49730;SDS011;35622;52.008;5.426;2023-07-29T03:20:58;7.38;;;3.92;;
49730;SDS011;35622;52.008;5.426;2023-07-29T03:23:24;6.85;;;4.40;;
49730;SDS011;35622;52.008;5.426;2023-07-29T03:25:50;7.70;;;3.72;;
49730;SDS011;35622;52.008;5.426;2023-07-29T03:28:21;7.05;;;3.38;;
49730;SDS011;35622;52.008;5.426;2023-07-29T03:30:48;6.28;;;2.67;;
49730;SDS011;35622;52.008;5.426;2023-07-29T03:33:13;5.40;;;2.63;;
49730;SDS011;35622;52.008;5.426;2023-07-29T03:35:39;5.70;;;2.13;;
49730;SDS011;35622;52.008;5.426;2023-07-29T03:38:04;4.47;;;2.00;;
49730;SDS011;35622;52.008;5.426;2023-07-29T03:40:30;5.82;;;2.30;;
49730;SDS011;35622;52.008;5.426;2023-07-29T03:42:56;5.50;;;2.20;;
49730;SDS011;35622;52.008;5.426;2023-07-29T03:45:21;4.78;;;2.25;;
49730;SDS011;35622;52.008;5.426;2023-07-29T03:47:47;5.35;;;2.03;;
49730;SDS011;35622;52.008;5.426;2023-07-29T03:50:12;6.03;;;1.90;;
49730;SDS011;35622;52.008;5.426;2023-07-29T03:52:38;4.28;;;2.67;;
49730;SDS011;35622;52.008;5.426;2023-07-29T03:55:03;6.88;;;3.15;;
49730;SDS011;35622;52.008;5.426;2023-07-29T03:57:29;7.05;;;2.45;;
49730;SDS011;35622;52.008;5.426;2023-07-29T03:59:55;8.10;;;3.83;;
49730;SDS011;35622;52.008;5.426;2023-07-29T04:02:20;6.93;;;3.22;;
49730;SDS011;35622;52.008;5.426;2023-07-29T04:04:46;6.15;;;3.28;;
49730;SDS011;35622;52.008;5.426;2023-07-29T04:07:13;8.15;;;3.42;;
49730;SDS011;35622;52.008;5.426;2023-07-29T04:09:39;7.63;;;3.55;;
49730;SDS011;35622;52.008;5.426;2023-07-29T04:12:05;7.30;;;2.88;;
49730;SDS011;35622;52.008;5.426;2023-07-29T04:14:30;7.75;;;3.08;;
49730;SDS011;35622;52.008;5.426;2023-07-29T04:16:56;7.88;;;3.65;;
49730;SDS011;35622;52.008;5.426;2023-07-29T04:19:22;6.45;;;3.75;;
49730;SDS011;35622;52.008;5.426;2023-07-29T04:21:47;6.97;;;4.10;;
49730;SDS011;35622;52.008;5.426;2023-07-29T04:24:13;7.78;;;3.70;;
49730;SDS011;35622;52.008;5.426;2023-07-29T04:26:38;6.40;;;3.78;;
49730;SDS011;35622;52.008;5.426;2023-07-29T04:29:04;7.82;;;4.50;;
49730;SDS011;35622;52.008;5.426;2023-07-29T04:31:30;8.60;;;3.97;;
49730;SDS011;35622;52.008;5.426;2023-07-29T04:33:55;8.73;;;3.95;;
49730;SDS011;35622;52.008;5.426;2023-07-29T04:36:21;7.93;;;4.18;;
49730;SDS011;35622;52.008;5.426;2023-07-29T04:38:46;6.75;;;3.80;;
49730;SDS011;35622;52.008;5.426;2023-07-29T04:41:12;6.00;;;3.95;;
49730;SDS011;35622;52.008;5.426;2023-07-29T04:43:37;8.30;;;3.38;;
49730;SDS011;35622;52.008;5.426;2023-07-29T04:46:05;7.32;;;3.22;;
49730;SDS011;35622;52.008;5.426;2023-07-29T04:48:32;10.20;;;3.60;;
49730;SDS011;35622;52.008;5.426;2023-07-29T04:50:58;9.95;;;3.55;;
49730;SDS011;35622;52.008;5.426;2023-07-29T04:53:23;5.40;;;2.92;;
49730;SDS011;35622;52.008;5.426;2023-07-29T04:55:49;5.93;;;2.72;;
49730;SDS011;35622;52.008;5.426;2023-07-29T04:58:14;6.57;;;3.17;;
49730;SDS011;35622;52.008;5.426;2023-07-29T05:00:40;7.15;;;3.20;;
49730;SDS011;35622;52.008;5.426;2023-07-29T05:03:05;5.55;;;3.00;;
49730;SDS011;35622;52.008;5.426;2023-07-29T05:05:31;5.50;;;2.88;;
49730;SDS011;35622;52.008;5.426;2023-07-29T05:07:57;5.47;;;3.00;;
49730;SDS011;35622;52.008;5.426;2023-07-29T05:10:23;5.68;;;3.05;;
49730;SDS011;35622;52.008;5.426;2023-07-29T05:12:49;5.13;;;2.95;;
49730;SDS011;35622;52.008;5.426;2023-07-29T05:15:14;5.88;;;2.72;;
49730;SDS011;35622;52.008;5.426;2023-07-29T05:17:40;8.23;;;2.60;;
49730;SDS011;35622;52.008;5.426;2023-07-29T05:20:06;4.82;;;2.53;;
49730;SDS011;35622;52.008;5.426;2023-07-29T05:22:32;7.00;;;2.67;;
49730;SDS011;35622;52.008;5.426;2023-07-29T05:24:57;8.95;;;2.83;;
49730;SDS011;35622;52.008;5.426;2023-07-29T05:27:23;5.80;;;2.75;;
49730;SDS011;35622;52.008;5.426;2023-07-29T05:29:48;4.90;;;2.60;;
49730;SDS011;35622;52.008;5.426;2023-07-29T05:32:14;9.00;;;3.03;;
49730;SDS011;35622;52.008;5.426;2023-07-29T05:34:39;5.70;;;2.60;;
49730;SDS011;35622;52.008;5.426;2023-07-29T05:37:05;3.95;;;2.40;;
49730;SDS011;35622;52.008;5.426;2023-07-29T05:39:31;5.68;;;3.40;;
49730;SDS011;35622;52.008;5.426;2023-07-29T05:41:57;6.28;;;3.17;;
49730;SDS011;35622;52.008;5.426;2023-07-29T05:44:23;7.32;;;3.50;;
49730;SDS011;35622;52.008;5.426;2023-07-29T05:46:48;7.95;;;3.58;;
49730;SDS011;35622;52.008;5.426;2023-07-29T05:49:14;9.30;;;3.60;;
49730;SDS011;35622;52.008;5.426;2023-07-29T05:51:39;5.43;;;3.28;;
49730;SDS011;35622;52.008;5.426;2023-07-29T05:54:05;5.10;;;2.67;;
49730;SDS011;35622;52.008;5.426;2023-07-29T05:56:31;9.25;;;3.08;;
49730;SDS011;35622;52.008;5.426;2023-07-29T05:58:56;9.02;;;3.05;;
49730;SDS011;35622;52.008;5.426;2023-07-29T06:01:22;7.32;;;3.33;;
49730;SDS011;35622;52.008;5.426;2023-07-29T06:03:48;7.78;;;4.35;;
49730;SDS011;35622;52.008;5.426;2023-07-29T06:06:13;4.55;;;2.33;;
49730;SDS011;35622;52.008;5.426;2023-07-29T06:08:39;8.93;;;2.88;;
49730;SDS011;35622;52.008;5.426;2023-07-29T06:11:04;5.25;;;3.08;;
49730;SDS011;35622;52.008;5.426;2023-07-29T06:16:16;7.03;;;3.10;;
49730;SDS011;35622;52.008;5.426;2023-07-29T06:18:42;5.45;;;3.03;;
49730;SDS011;35622;52.008;5.426;2023-07-29T06:21:07;4.47;;;2.55;;
49730;SDS011;35622;52.008;5.426;2023-07-29T06:23:36;5.88;;;3.17;;
49730;SDS011;35622;52.008;5.426;2023-07-29T06:26:02;6.32;;;3.42;;
49730;SDS011;35622;52.008;5.426;2023-07-29T06:28:30;4.85;;;3.25;;
49730;SDS011;35622;52.008;5.426;2023-07-29T06:30:55;5.47;;;3.53;;
49730;SDS011;35622;52.008;5.426;2023-07-29T06:33:21;6.10;;;3.15;;
49730;SDS011;35622;52.008;5.426;2023-07-29T06:35:47;6.18;;;3.40;;
49730;SDS011;35622;52.008;5.426;2023-07-29T06:38:12;6.53;;;4.32;;
49730;SDS011;35622;52.008;5.426;2023-07-29T06:40:38;7.18;;;4.50;;
49730;SDS011;35622;52.008;5.426;2023-07-29T06:43:03;7.40;;;4.03;;
49730;SDS011;35622;52.008;5.426;2023-07-29T06:45:29;5.47;;;3.83;;
49730;SDS011;35622;52.008;5.426;2023-07-29T06:47:54;5.65;;;3.35;;
49730;SDS011;35622;52.008;5.426;2023-07-29T06:50:20;5.30;;;2.67;;
49730;SDS011;35622;52.008;5.426;2023-07-29T06:52:45;5.40;;;2.80;;
49730;SDS011;35622;52.008;5.426;2023-07-29T06:55:11;4.95;;;3.10;;
49730;SDS011;35622;52.008;5.426;2023-07-29T06:57:36;8.50;;;4.60;;
49730;SDS011;35622;52.008;5.426;2023-07-29T07:00:02;6.30;;;3.67;;
49730;SDS011;35622;52.008;5.426;2023-07-29T07:02:29;5.68;;;3.10;;
49730;SDS011;35622;52.008;5.426;2023-07-29T07:04:55;6.63;;;4.30;;
49730;SDS011;35622;52.008;5.426;2023-07-29T07:07:21;7.90;;;4.78;;
49730;SDS011;35622;52.008;5.426;2023-07-29T07:09:46;6.43;;;4.38;;
49730;SDS011;35622;52.008;5.426;2023-07-29T07:12:12;6.18;;;4.00;;
49730;SDS011;35622;52.008;5.426;2023-07-29T07:14:37;6.32;;;3.40;;
49730;SDS011;35622;52.008;5.426;2023-07-29T07:17:03;4.70;;;3.17;;
49730;SDS011;35622;52.008;5.426;2023-07-29T07:19:29;10.13;;;4.03;;
49730;SDS011;35622;52.008;5.426;2023-07-29T07:21:54;5.68;;;3.72;;
49730;SDS011;35622;52.008;5.426;2023-07-29T07:24:20;10.95;;;4.22;;
49730;SDS011;35622;52.008;5.426;2023-07-29T07:26:45;9.80;;;3.90;;
49730;SDS011;35622;52.008;5.426;2023-07-29T07:29:11;7.53;;;5.18;;
49730;SDS011;35622;52.008;5.426;2023-07-29T07:31:36;6.05;;;4.50;;
49730;SDS011;35622;52.008;5.426;2023-07-29T07:34:02;6.65;;;4.70;;
49730;SDS011;35622;52.008;5.426;2023-07-29T07:36:28;6.13;;;4.03;;
49730;SDS011;35622;52.008;5.426;2023-07-29T07:38:54;7.85;;;5.88;;
49730;SDS011;35622;52.008;5.426;2023-07-29T07:41:19;6.57;;;5.38;;
49730;SDS011;35622;52.008;5.426;2023-07-29T07:43:45;7.05;;;4.68;;
49730;SDS011;35622;52.008;5.426;2023-07-29T07:46:10;6.43;;;5.50;;
49730;SDS011;35622;52.008;5.426;2023-07-29T07:48:36;6.15;;;4.57;;
49730;SDS011;35622;52.008;5.426;2023-07-29T07:51:12;7.43;;;4.43;;
49730;SDS011;35622;52.008;5.426;2023-07-29T07:53:38;5.43;;;4.47;;
49730;SDS011;35622;52.008;5.426;2023-07-29T07:56:05;7.82;;;5.22;;
49730;SDS011;35622;52.008;5.426;2023-07-29T07:58:31;6.82;;;4.28;;
49730;SDS011;35622;52.008;5.426;2023-07-29T08:01:03;5.82;;;4.13;;
49730;SDS011;35622;52.008;5.426;2023-07-29T08:03:29;5.07;;;4.28;;
49730;SDS011;35622;52.008;5.426;2023-07-29T08:05:55;6.80;;;3.67;;
49730;SDS011;35622;52.008;5.426;2023-07-29T08:08:21;4.72;;;3.60;;
49730;SDS011;35622;52.008;5.426;2023-07-29T08:10:46;4.32;;;3.80;;
49730;SDS011;35622;52.008;5.426;2023-07-29T08:13:12;3.83;;;2.63;;
49730;SDS011;35622;52.008;5.426;2023-07-29T08:15:37;4.88;;;3.13;;
49730;SDS011;35622;52.008;5.426;2023-07-29T08:18:03;4.60;;;2.47;;
49730;SDS011;35622;52.008;5.426;2023-07-29T08:23:22;5.93;;;2.20;;
49730;SDS011;35622;52.008;5.426;2023-07-29T08:25:52;3.78;;;2.50;;
49730;SDS011;35622;52.008;5.426;2023-07-29T08:28:26;3.55;;;2.30;;
49730;SDS011;35622;52.008;5.426;2023-07-29T08:30:55;4.10;;;2.50;;
49730;SDS011;35622;52.008;5.426;2023-07-29T08:33:21;4.30;;;2.15;;
49730;SDS011;35622;52.008;5.426;2023-07-29T08:35:46;3.63;;;2.50;;
49730;SDS011;35622;52.008;5.426;2023-07-29T08:38:12;3.75;;;2.35;;
49730;SDS011;35622;52.008;5.426;2023-07-29T08:40:40;4.28;;;2.53;;
49730;SDS011;35622;52.008;5.426;2023-07-29T08:43:09;4.57;;;2.63;;
49730;SDS011;35622;52.008;5.426;2023-07-29T08:45:37;5.30;;;2.47;;
49730;SDS011;35622;52.008;5.426;2023-07-29T08:48:05;3.45;;;2.50;;
49730;SDS011;35622;52.008;5.426;2023-07-29T08:50:33;3.90;;;2.55;;
49730;SDS011;35622;52.008;5.426;2023-07-29T08:53:01;3.72;;;2.78;;
49730;SDS011;35622;52.008;5.426;2023-07-29T08:55:30;6.72;;;3.45;;
49730;SDS011;35622;52.008;5.426;2023-07-29T08:57:56;3.30;;;3.00;;
49730;SDS011;35622;52.008;5.426;2023-07-29T09:00:23;3.95;;;3.58;;
49730;SDS011;35622;52.008;5.426;2023-07-29T09:02:50;4.53;;;3.95;;
49730;SDS011;35622;52.008;5.426;2023-07-29T09:05:15;5.35;;;3.90;;
49730;SDS011;35622;52.008;5.426;2023-07-29T09:07:41;5.70;;;3.70;;
49730;SDS011;35622;52.008;5.426;2023-07-29T09:10:09;4.53;;;3.60;;
49730;SDS011;35622;52.008;5.426;2023-07-29T09:12:36;4.72;;;3.25;;
49730;SDS011;35622;52.008;5.426;2023-07-29T09:15:01;4.50;;;2.65;;
49730;SDS011;35622;52.008;5.426;2023-07-29T09:17:27;3.65;;;2.72;;
49730;SDS011;35622;52.008;5.426;2023-07-29T09:19:56;3.55;;;2.75;;
49730;SDS011;35622;52.008;5.426;2023-07-29T09:22:22;2.80;;;2.60;;
49730;SDS011;35622;52.008;5.426;2023-07-29T09:24:48;4.68;;;2.60;;
49730;SDS011;35622;52.008;5.426;2023-07-29T09:27:26;4.35;;;2.55;;
49730;SDS011;35622;52.008;5.426;2023-07-29T09:29:56;4.35;;;2.67;;
49730;SDS011;35622;52.008;5.426;2023-07-29T09:32:23;3.42;;;2.60;;
49730;SDS011;35622;52.008;5.426;2023-07-29T09:34:50;2.70;;;2.40;;
49730;SDS011;35622;52.008;5.426;2023-07-29T09:37:22;3.17;;;2.75;;
49730;SDS011;35622;52.008;5.426;2023-07-29T09:39:49;3.90;;;2.40;;
49730;SDS011;35622;52.008;5.426;2023-07-29T09:42:18;7.03;;;2.70;;
49730;SDS011;35622;52.008;5.426;2023-07-29T09:44:45;3.42;;;2.30;;
49730;SDS011;35622;52.008;5.426;2023-07-29T09:47:18;3.50;;;2.15;;
49730;SDS011;35622;52.008;5.426;2023-07-29T09:49:47;3.15;;;1.80;;
49730;SDS011;35622;52.008;5.426;2023-07-29T09:52:14;2.70;;;1.88;;
49730;SDS011;35622;52.008;5.426;2023-07-29T09:54:44;3.50;;;2.05;;
49730;SDS011;35622;52.008;5.426;2023-07-29T09:57:11;3.08;;;1.92;;
49730;SDS011;35622;52.008;5.426;2023-07-29T09:59:38;2.25;;;1.80;;
49730;SDS011;35622;52.008;5.426;2023-07-29T10:02:04;2.53;;;1.52;;
49730;SDS011;35622;52.008;5.426;2023-07-29T10:04:29;3.72;;;1.85;;
49730;SDS011;35622;52.008;5.426;2023-07-29T10:06:56;2.80;;;1.85;;
49730;SDS011;35622;52.008;5.426;2023-07-29T10:09:22;3.28;;;2.08;;
49730;SDS011;35622;52.008;5.426;2023-07-29T10:11:49;2.90;;;1.70;;
49730;SDS011;35622;52.008;5.426;2023-07-29T10:14:16;2.00;;;1.80;;
49730;SDS011;35622;52.008;5.426;2023-07-29T10:16:42;2.45;;;1.98;;
49730;SDS011;35622;52.008;5.426;2023-07-29T10:19:11;3.10;;;1.55;;
49730;SDS011;35622;52.008;5.426;2023-07-29T10:21:39;3.00;;;1.58;;
49730;SDS011;35622;52.008;5.426;2023-07-29T10:24:11;2.38;;;1.58;;
49730;SDS011;35622;52.008;5.426;2023-07-29T10:26:44;2.42;;;1.70;;
49730;SDS011;35622;52.008;5.426;2023-07-29T10:29:12;2.63;;;1.45;;
49730;SDS011;35622;52.008;5.426;2023-07-29T10:31:40;4.78;;;1.33;;
49730;SDS011;35622;52.008;5.426;2023-07-29T10:34:08;4.00;;;1.20;;
49730;SDS011;35622;52.008;5.426;2023-07-29T10:36:34;3.97;;;1.00;;
49730;SDS011;35622;52.008;5.426;2023-07-29T10:39:01;2.65;;;1.30;;
49730;SDS011;35622;52.008;5.426;2023-07-29T10:47:13;1.65;;;1.30;;
49730;SDS011;35622;52.008;5.426;2023-07-29T10:49:45;1.60;;;1.20;;
49730;SDS011;35622;52.008;5.426;2023-07-29T10:52:12;2.38;;;1.10;;
49730;SDS011;35622;52.008;5.426;2023-07-29T10:54:52;1.77;;;1.10;;
49730;SDS011;35622;52.008;5.426;2023-07-29T10:57:30;1.98;;;1.10;;
49730;SDS011;35622;52.008;5.426;2023-07-29T10:59:59;1.95;;;1.23;;
49730;SDS011;35622;52.008;5.426;2023-07-29T11:02:30;1.50;;;1.00;;
49730;SDS011;35622;52.008;5.426;2023-07-29T11:04:57;2.90;;;1.45;;
49730;SDS011;35622;52.008;5.426;2023-07-29T11:07:25;2.17;;;1.10;;
49730;SDS011;35622;52.008;5.426;2023-07-29T11:17:43;2.47;;;1.60;;
49730;SDS011;35622;52.008;5.426;2023-07-29T11:20:11;2.00;;;1.52;;
49730;SDS011;35622;52.008;5.426;2023-07-29T11:22:38;2.50;;;1.92;;
49730;SDS011;35622;52.008;5.426;2023-07-29T11:25:04;3.53;;;2.22;;
49730;SDS011;35622;52.008;5.426;2023-07-29T11:27:31;2.83;;;2.25;;
49730;SDS011;35622;52.008;5.426;2023-07-29T11:29:58;5.05;;;2.08;;
49730;SDS011;35622;52.008;5.426;2023-07-29T11:32:25;3.42;;;2.10;;
49730;SDS011;35622;52.008;5.426;2023-07-29T11:34:51;4.93;;;2.20;;
49730;SDS011;35622;52.008;5.426;2023-07-29T11:37:17;6.13;;;2.72;;
49730;SDS011;35622;52.008;5.426;2023-07-29T11:39:43;3.63;;;2.22;;
49730;SDS011;35622;52.008;5.426;2023-07-29T11:42:10;6.45;;;3.10;;
49730;SDS011;35622;52.008;5.426;2023-07-29T11:44:36;6.43;;;2.95;;
49730;SDS011;35622;52.008;5.426;2023-07-29T11:47:06;5.60;;;3.60;;
49730;SDS011;35622;52.008;5.426;2023-07-29T11:49:33;4.80;;;3.55;;
49730;SDS011;35622;52.008;5.426;2023-07-29T11:51:59;5.22;;;3.33;;
49730;SDS011;35622;52.008;5.426;2023-07-29T11:54:25;4.28;;;2.90;;
49730;SDS011;35622;52.008;5.426;2023-07-29T11:56:51;6.30;;;3.35;;
49730;SDS011;35622;52.008;5.426;2023-07-29T11:59:17;5.55;;;3.40;;
49730;SDS011;35622;52.008;5.426;2023-07-29T12:01:42;5.43;;;3.83;;
49730;SDS011;35622;52.008;5.426;2023-07-29T12:04:08;5.57;;;3.85;;
49730;SDS011;35622;52.008;5.426;2023-07-29T12:06:34;4.85;;;3.60;;
49730;SDS011;35622;52.008;5.426;2023-07-29T12:09:00;5.07;;;3.25;;
49730;SDS011;35622;52.008;5.426;2023-07-29T12:11:26;5.22;;;3.53;;
49730;SDS011;35622;52.008;5.426;2023-07-29T12:13:53;6.07;;;3.17;;
49730;SDS011;35622;52.008;5.426;2023-07-29T12:16:19;5.13;;;3.67;;
49730;SDS011;35622;52.008;5.426;2023-07-29T12:18:45;6.18;;;3.83;;
49730;SDS011;35622;52.008;5.426;2023-07-29T12:21:10;4.38;;;3.38;;
49730;SDS011;35622;52.008;5.426;2023-07-29T12:23:38;6.07;;;3.65;;
49730;SDS011;35622;52.008;5.426;2023-07-29T12:26:04;4.80;;;3.85;;
49730;SDS011;35622;52.008;5.426;2023-07-29T12:28:29;4.35;;;3.35;;
49730;SDS011;35622;52.008;5.426;2023-07-29T12:30:56;2.80;;;2.53;;
49730;SDS011;35622;52.008;5.426;2023-07-29T12:35:57;3.90;;;2.70;;
49730;SDS011;35622;52.008;5.426;2023-07-29T12:38:25;3.90;;;2.33;;
49730;SDS011;35622;52.008;5.426;2023-07-29T12:40:51;3.05;;;2.45;;
49730;SDS011;35622;52.008;5.426;2023-07-29T12:43:16;3.35;;;2.00;;
49730;SDS011;35622;52.008;5.426;2023-07-29T12:45:42;2.42;;;1.85;;
49730;SDS011;35622;52.008;5.426;2023-07-29T12:48:09;2.88;;;1.88;;
49730;SDS011;35622;52.008;5.426;2023-07-29T12:50:35;4.80;;;2.05;;
49730;SDS011;35622;52.008;5.426;2023-07-29T12:53:00;2.05;;;1.77;;
49730;SDS011;35622;52.008;5.426;2023-07-29T12:55:26;2.42;;;1.60;;
49730;SDS011;35622;52.008;5.426;2023-07-29T12:57:51;3.30;;;1.75;;
49730;SDS011;35622;52.008;5.426;2023-07-29T13:00:17;2.00;;;1.67;;
49730;SDS011;35622;52.008;5.426;2023-07-29T13:02:43;2.10;;;1.60;;
49730;SDS011;35622;52.008;5.426;2023-07-29T13:05:09;2.13;;;1.67;;
49730;SDS011;35622;52.008;5.426;2023-07-29T13:07:37;1.95;;;1.60;;
49730;SDS011;35622;52.008;5.426;2023-07-29T13:10:04;2.83;;;1.73;;
49730;SDS011;35622;52.008;5.426;2023-07-29T13:12:30;2.58;;;1.50;;
49730;SDS011;35622;52.008;5.426;2023-07-29T13:14:56;3.80;;;1.98;;
49730;SDS011;35622;52.008;5.426;2023-07-29T13:17:21;2.03;;;1.73;;
49730;SDS011;35622;52.008;5.426;2023-07-29T13:19:48;2.05;;;1.65;;
49730;SDS011;35622;52.008;5.426;2023-07-29T13:22:13;2.65;;;2.40;;
49730;SDS011;35622;52.008;5.426;2023-07-29T13:24:39;3.78;;;3.40;;
49730;SDS011;35622;52.008;5.426;2023-07-29T13:27:05;5.18;;;4.28;;
49730;SDS011;35622;52.008;5.426;2023-07-29T13:29:30;2.22;;;2.00;;
49730;SDS011;35622;52.008;5.426;2023-07-29T13:31:56;5.85;;;3.80;;
49730;SDS011;35622;52.008;5.426;2023-07-29T13:34:21;5.07;;;4.50;;
49730;SDS011;35622;52.008;5.426;2023-07-29T13:36:47;5.22;;;4.50;;
49730;SDS011;35622;52.008;5.426;2023-07-29T13:39:12;5.22;;;4.47;;
49730;SDS011;35622;52.008;5.426;2023-07-29T13:41:38;4.15;;;3.75;;
49730;SDS011;35622;52.008;5.426;2023-07-29T13:44:04;6.78;;;4.20;;
49730;SDS011;35622;52.008;5.426;2023-07-29T13:46:29;5.05;;;4.22;;
49730;SDS011;35622;52.008;5.426;2023-07-29T13:48:55;5.07;;;4.55;;
49730;SDS011;35622;52.008;5.426;2023-07-29T13:51:20;4.95;;;3.72;;
49730;SDS011;35622;52.008;5.426;2023-07-29T13:53:46;4.55;;;3.78;;
49730;SDS011;35622;52.008;5.426;2023-07-29T13:56:11;4.88;;;3.20;;
49730;SDS011;35622;52.008;5.426;2023-07-29T13:58:37;4.07;;;2.65;;
49730;SDS011;35622;52.008;5.426;2023-07-29T14:01:02;4.05;;;2.88;;
49730;SDS011;35622;52.008;5.426;2023-07-29T14:03:28;5.93;;;2.80;;
49730;SDS011;35622;52.008;5.426;2023-07-29T14:05:54;3.20;;;2.45;;
49730;SDS011;35622;52.008;5.426;2023-07-29T14:08:19;2.90;;;2.38;;
49730;SDS011;35622;52.008;5.426;2023-07-29T14:10:45;2.70;;;2.50;;
49730;SDS011;35622;52.008;5.426;2023-07-29T14:13:10;3.38;;;2.50;;
49730;SDS011;35622;52.008;5.426;2023-07-29T14:15:36;3.63;;;3.33;;
49730;SDS011;35622;52.008;5.426;2023-07-29T14:18:02;2.92;;;2.63;;
49730;SDS011;35622;52.008;5.426;2023-07-29T14:20:27;4.60;;;2.72;;
49730;SDS011;35622;52.008;5.426;2023-07-29T14:22:53;4.13;;;2.50;;
49730;SDS011;35622;52.008;5.426;2023-07-29T14:25:18;3.70;;;2.50;;
49730;SDS011;35622;52.008;5.426;2023-07-29T14:27:44;2.33;;;2.05;;
49730;SDS011;35622;52.008;5.426;2023-07-29T14:30:10;2.60;;;2.40;;
49730;SDS011;35622;52.008;5.426;2023-07-29T14:32:35;3.85;;;2.22;;
49730;SDS011;35622;52.008;5.426;2023-07-29T14:35:02;2.78;;;2.05;;
49730;SDS011;35622;52.008;5.426;2023-07-29T14:37:31;2.47;;;2.28;;
49730;SDS011;35622;52.008;5.426;2023-07-29T14:39:57;4.05;;;2.30;;
49730;SDS011;35622;52.008;5.426;2023-07-29T14:42:23;2.30;;;1.73;;
49730;SDS011;35622;52.008;5.426;2023-07-29T14:44:49;2.17;;;1.80;;
49730;SDS011;35622;52.008;5.426;2023-07-29T14:47:14;2.00;;;1.42;;
49730;SDS011;35622;52.008;5.426;2023-07-29T14:49:40;1.60;;;1.40;;
49730;SDS011;35622;52.008;5.426;2023-07-29T14:52:06;2.42;;;1.50;;
49730;SDS011;35622;52.008;5.426;2023-07-29T14:54:32;2.38;;;1.40;;
49730;SDS011;35622;52.008;5.426;2023-07-29T14:56:57;3.28;;;1.40;;
49730;SDS011;35622;52.008;5.426;2023-07-29T14:59:23;3.25;;;1.38;;
49730;SDS011;35622;52.008;5.426;2023-07-29T15:01:48;1.58;;;1.20;;
49730;SDS011;35622;52.008;5.426;2023-07-29T15:04:14;1.88;;;1.30;;
49730;SDS011;35622;52.008;5.426;2023-07-29T15:06:39;2.28;;;1.27;;
49730;SDS011;35622;52.008;5.426;2023-07-29T15:09:05;3.45;;;1.33;;
49730;SDS011;35622;52.008;5.426;2023-07-29T15:11:31;1.85;;;0.95;;